createdAt,value
2023-04-14T00:02:07.465Z,-0.05
2023-04-14T00:07:29.374Z,-0.14
2023-04-14T00:12:51.436Z,-0.14
2023-04-14T00:18:13.672Z,-0.27
2023-04-14T00:23:35.899Z,-0.28
2023-04-14T00:28:58.123Z,-0.30
2023-04-14T00:34:20.569Z,-0.48
2023-04-14T00:39:43.270Z,-0.45
2023-04-14T00:45:10.070Z,-0.61
2023-04-14T00:50:34.570Z,-0.66
2023-04-14T00:55:56.947Z,-0.56
2023-04-14T01:01:18.929Z,-0.67
2023-04-14T01:06:41.268Z,-0.76
2023-04-14T01:12:07.782Z,-0.79
2023-04-14T01:17:46.567Z,-0.90
2023-04-14T01:23:36.772Z,-1.07
2023-04-14T01:29:24.833Z,-0.96
2023-04-14T01:35:07.128Z,-1.05
2023-04-14T01:40:31.763Z,-1.38
2023-04-14T01:46:00.034Z,-1.35
2023-04-14T01:51:25.167Z,-1.34
2023-04-14T01:56:52.340Z,-1.36
2023-04-14T02:02:16.573Z,-1.47
2023-04-14T02:07:41.188Z,-1.57
2023-04-14T02:13:10.458Z,-1.49
2023-04-14T02:18:34.559Z,-1.54
2023-04-14T02:23:57.083Z,-1.66
2023-04-14T02:29:24.602Z,-1.71
2023-04-14T02:35:17.808Z,-1.70
2023-04-14T02:40:42.693Z,-1.54
2023-04-14T02:46:10.494Z,-1.55
2023-04-14T02:51:36.334Z,-1.56
2023-04-14T02:56:59.714Z,-1.61
2023-04-14T03:02:23.391Z,-1.60
2023-04-14T03:08:07.012Z,-1.55
2023-04-14T03:13:34.358Z,-1.60
2023-04-14T03:18:57.242Z,-1.45
2023-04-14T03:24:24.986Z,-1.50
2023-04-14T03:29:52.542Z,-1.37
2023-04-14T03:35:16.558Z,-1.43
2023-04-14T03:40:44.795Z,-1.51
2023-04-14T03:46:08.265Z,-1.48
2023-04-14T03:51:33.652Z,-1.49
2023-04-14T03:56:58.111Z,-1.43
2023-04-14T04:02:23.380Z,-1.39
2023-04-14T04:07:47.363Z,-1.29
2023-04-14T04:13:19.970Z,-1.29
2023-04-14T04:18:47.554Z,-0.98
2023-04-14T04:24:14.128Z,-0.36
2023-04-14T04:29:36.188Z,0.35
2023-04-14T04:34:59.866Z,0.48
2023-04-14T04:40:22.433Z,0.49
2023-04-14T04:46:25.054Z,1.19
2023-04-14T04:51:47.607Z,1.47
2023-04-14T04:57:12.298Z,1.57
2023-04-14T05:02:34.555Z,1.72
2023-04-14T05:07:56.568Z,1.99
2023-04-14T05:13:18.382Z,2.10
2023-04-14T05:18:43.405Z,2.42
2023-04-14T05:24:06.067Z,2.65
2023-04-14T05:29:28.586Z,2.65
2023-04-14T05:34:50.428Z,2.61
2023-04-14T05:40:43.564Z,3.57
2023-04-14T05:46:12.638Z,3.62
2023-04-14T05:51:34.997Z,3.43
2023-04-14T05:56:58.241Z,4.17
2023-04-14T06:02:21.029Z,4.20
2023-04-14T06:07:44.048Z,4.41
2023-04-14T06:13:09.154Z,4.37
2023-04-14T06:18:32.036Z,3.91
2023-04-14T06:23:54.637Z,3.72
2023-04-14T06:29:17.035Z,4.01
2023-04-14T06:34:38.967Z,4.64
2023-04-14T06:40:01.232Z,4.27
2023-04-14T06:45:25.829Z,4.07
2023-04-14T06:50:56.026Z,4.40
2023-04-14T06:56:17.830Z,4.66
2023-04-14T07:01:39.840Z,4.86
2023-04-14T07:07:02.264Z,5.03
2023-04-14T07:12:24.249Z,4.40
2023-04-14T07:17:46.367Z,4.62
2023-04-14T07:23:08.678Z,5.24
2023-04-14T07:28:30.460Z,4.94
2023-04-14T07:33:52.339Z,4.82
2023-04-14T07:39:14.307Z,5.10
2023-04-14T07:44:36.532Z,5.49
2023-04-14T07:49:59.050Z,4.87
2023-04-14T07:55:21.430Z,4.47
2023-04-14T08:00:44.308Z,4.60
2023-04-14T08:06:08.155Z,4.40
2023-04-14T08:11:30.557Z,4.87
2023-04-14T08:16:53.601Z,5.53
2023-04-14T08:22:16.197Z,6.00
2023-04-14T08:27:39.428Z,6.06
2023-04-14T08:33:01.467Z,5.91
2023-04-14T08:38:24.025Z,5.60
2023-04-14T08:43:46.869Z,5.70
2023-04-14T08:49:13.021Z,5.89
2023-04-14T08:54:34.939Z,6.48
2023-04-14T09:00:00.869Z,6.61
2023-04-14T09:05:23.440Z,6.25
2023-04-14T09:10:46.302Z,6.43
2023-04-14T09:16:09.845Z,6.70
2023-04-14T09:21:52.308Z,6.92
2023-04-14T09:27:16.441Z,6.94
2023-04-14T09:32:39.318Z,7.12
2023-04-14T09:38:01.464Z,6.96
2023-04-14T09:43:29.941Z,6.88
2023-04-14T09:48:57.003Z,7.03
2023-04-14T09:54:28.755Z,7.15
2023-04-14T09:59:51.014Z,7.10
2023-04-14T10:05:13.397Z,7.32
2023-04-14T10:10:36.067Z,6.85
2023-04-14T10:15:58.712Z,6.79
2023-04-14T10:21:25.446Z,6.68
2023-04-14T10:26:48.701Z,7.14
2023-04-14T10:32:15.706Z,7.40
2023-04-14T10:37:38.576Z,7.39
2023-04-14T10:43:01.006Z,7.40
2023-04-14T10:48:27.485Z,7.29
2023-04-14T10:53:56.045Z,7.45
2023-04-14T10:59:18.176Z,7.24
2023-04-14T11:05:09.697Z,7.18
2023-04-14T11:10:34.363Z,7.49
2023-04-14T11:16:11.325Z,7.42
2023-04-14T11:21:33.604Z,7.44
2023-04-14T11:26:56.693Z,7.38
2023-04-14T11:32:19.197Z,7.36
2023-04-14T11:37:41.199Z,7.29
2023-04-14T11:43:03.246Z,7.59
2023-04-14T11:48:25.631Z,7.58
2023-04-14T11:53:47.346Z,7.33
2023-04-14T11:59:10.884Z,7.40
2023-04-14T12:04:33.695Z,7.33
2023-04-14T12:09:55.282Z,7.38
2023-04-14T12:15:17.747Z,7.32
2023-04-14T12:21:02.641Z,7.44
2023-04-14T12:26:26.819Z,7.50
2023-04-14T12:31:49.056Z,7.64
2023-04-14T12:37:12.710Z,7.66
2023-04-14T12:42:47.092Z,7.63
2023-04-14T12:48:09.245Z,7.68
2023-04-14T12:53:31.051Z,7.54
2023-04-14T12:58:53.058Z,7.56
2023-04-14T13:04:15.214Z,7.45
2023-04-14T13:09:37.309Z,7.44
2023-04-14T13:14:59.666Z,7.38
2023-04-14T13:20:23.080Z,7.47
2023-04-14T13:25:45.206Z,7.47
2023-04-14T13:31:07.585Z,7.54
2023-04-14T13:36:32.846Z,7.30
2023-04-14T13:41:57.118Z,7.15
2023-04-14T13:47:30.446Z,7.18
2023-04-14T13:58:45.162Z,7.10
2023-04-14T14:04:13.517Z,7.06
2023-04-14T14:09:36.237Z,6.86
2023-04-14T14:14:58.039Z,6.68
2023-04-14T14:20:20.757Z,6.64
2023-04-14T14:25:43.784Z,6.66
2023-04-14T14:31:06.324Z,6.56
2023-04-14T14:36:30.683Z,6.51
2023-04-14T14:41:53.191Z,6.27
2023-04-14T14:47:15.466Z,6.26
2023-04-14T14:52:37.185Z,6.17
2023-04-14T14:57:59.737Z,5.84
2023-04-14T15:03:22.299Z,5.80
2023-04-14T15:08:44.453Z,5.81
2023-04-14T15:14:07.067Z,5.64
2023-04-14T15:19:29.519Z,5.48
2023-04-14T15:24:51.801Z,5.39
2023-04-14T15:30:16.425Z,5.23
2023-04-14T15:35:39.942Z,5.07
2023-04-14T15:41:02.331Z,4.78
2023-04-14T15:46:24.657Z,4.60
2023-04-14T15:58:35.159Z,4.23
2023-04-14T16:03:57.688Z,3.95
2023-04-14T16:09:19.876Z,3.93
2023-04-14T16:14:43.295Z,3.77
2023-04-14T16:20:06.139Z,3.60
2023-04-14T16:25:28.325Z,3.35
2023-04-14T16:30:50.928Z,3.36
2023-04-14T16:36:13.435Z,3.21
2023-04-14T16:47:15.218Z,2.87
2023-04-14T16:52:37.633Z,2.77
2023-04-14T16:57:59.986Z,2.60
2023-04-14T17:03:22.961Z,2.22
2023-04-14T17:08:45.086Z,2.05
2023-04-14T17:14:07.219Z,1.76
2023-04-14T17:19:29.766Z,1.74
2023-04-14T17:24:52.703Z,1.55
2023-04-14T17:30:15.350Z,1.51
2023-04-14T17:35:38.262Z,1.16
2023-04-14T17:41:12.737Z,1.05
2023-04-14T17:46:35.283Z,1.08
2023-04-14T17:51:57.650Z,1.01
2023-04-14T17:57:20.335Z,0.90
2023-04-14T18:02:42.901Z,0.69
2023-04-14T18:08:05.754Z,0.60
2023-04-14T18:13:29.151Z,0.37
2023-04-14T18:18:51.705Z,0.34
2023-04-14T18:29:43.299Z,0.11
2023-04-14T18:35:10.349Z,0.05
2023-04-14T18:40:32.769Z,0.09
2023-04-14T18:45:55.200Z,-0.13
2023-04-14T18:51:17.386Z,0.01
2023-04-14T18:56:39.788Z,-0.08
2023-04-14T19:02:02.103Z,-0.16
2023-04-14T19:07:23.975Z,-0.30
2023-04-14T19:12:46.101Z,-0.30
2023-04-14T19:18:08.350Z,-0.36
2023-04-14T19:23:30.757Z,-0.45
2023-04-14T19:28:54.448Z,-0.47
2023-04-14T19:34:16.703Z,-0.37
2023-04-14T19:39:38.932Z,-0.43
2023-04-14T19:45:01.663Z,-0.44
2023-04-14T19:50:25.648Z,-0.47
2023-04-14T19:55:52.414Z,-0.55
2023-04-14T20:01:14.711Z,-0.76
2023-04-14T20:06:36.961Z,-0.69
2023-04-14T20:11:58.663Z,-0.71
2023-04-14T20:17:22.584Z,-0.73
2023-04-14T20:22:44.663Z,-0.79
2023-04-14T20:28:08.101Z,-0.83
2023-04-14T20:33:30.536Z,-0.81
2023-04-14T20:38:52.484Z,-0.83
2023-04-14T20:44:15.950Z,-1.05
2023-04-14T21:08:12.155Z,-1.42
2023-04-14T21:31:03.135Z,-1.31
2023-04-14T21:42:58.191Z,-1.15
2023-04-14T21:48:21.262Z,-1.23
2023-04-14T21:53:43.205Z,-1.26
2023-04-14T21:59:07.014Z,-1.23
2023-04-14T22:04:36.638Z,-1.29
2023-04-14T22:09:59.280Z,-1.35
2023-04-14T22:15:21.445Z,-1.45
2023-04-14T22:20:45.508Z,-1.47
2023-04-14T22:26:08.373Z,-1.50
2023-04-14T22:31:30.776Z,-1.48
2023-04-14T22:36:53.006Z,-1.43
2023-04-14T22:42:15.410Z,-1.70
2023-04-14T22:47:39.605Z,-1.76
2023-04-14T22:53:10.165Z,-1.68
2023-04-14T22:58:39.754Z,-1.89
2023-04-14T23:04:02.607Z,-1.96
2023-04-14T23:09:31.437Z,-1.98
2023-04-14T23:14:57.154Z,-1.98
2023-04-14T23:20:27.333Z,-2.07
2023-04-14T23:26:02.101Z,-2.02
2023-04-14T23:31:43.228Z,-1.97
2023-04-14T23:37:07.320Z,-2.29
2023-04-14T23:42:29.916Z,-2.02
2023-04-14T23:47:51.737Z,-2.05
2023-04-14T23:53:13.905Z,-2.11
2023-04-14T23:58:35.468Z,-2.11
